Boiling Springs, NC

11:16 PM EST on February 09, 2016 (GMT -0500)
KD4YTI | | Change Station
CLOSE
Current Station
Personal Weather Station
Location: Shelby, NC
Elevation: 804 ft
Nearby Weather Stations

Elev 804 ft 35.26 °N, 81.64 °W | Updated 3 minutes ago

Scattered Clouds
Scattered Clouds
28.4 °F
Feels Like 21 °F
N
7.4
Wind Variable Wind from WSW

Today
High -- | Low -- °F
--% Chance of Precip.
Yesterday
High -- | Low -- °F
Precip. -- in
Pressure 29.87 in
Visibility 10.0 miles
Clouds Scattered Clouds 11000 ft
Windchill 21 °F
Dew Point 10 °F
Humidity 46%
Rainfall 0.00 in
Snow Depth Not available.
7:19 AM 6:02 PM
Waxing Crescent, 3% visible
METAR KEHO 100355Z AUTO 27005KT 10SM SCT110 M02/M12 A2987 RMK AO2 T10231119
Pressure 29.87 in
Visibility 10.0 miles
Clouds Scattered Clouds 11000 ft
Windchill 21 °F
Dew Point 10 °F
Humidity 46%
Rainfall 0.00 in
Snow Depth Not available.
7:19 AM 6:02 PM
Waxing Crescent, 3% visible
METAR KEHO 100355Z AUTO 27005KT 10SM SCT110 M02/M12 A2987 RMK AO2 T10231119
Winter Storm Nacio, the third winter storm in five days to affect the Northeast, is bringing pockets of locally heavy snow to parts of the Ohio Valley, Appalachians and mid-Atlantic states Tuesday. Winter storm warnings are posted for parts of southern Pennsylvania, southern Ohio and the higher peaks of the Appalachians. Winter weather advisories, generally for lighter snow accumulations, stretch from northeast Alabama and far north Georgia to southern Connecticut and Long Island.

10-Day Weather Forecast

Almanac

Astronomy

Feb. 09, 2016 Rise Set
Actual Time
Civil Twilight
Nautical Twilight
Astronomical Twilight
Moon
Length of Visible Light
Length of Day
Tomorrow will be .
, % of the Moon is Illuminated

Today's Extremes

State Highs State Lows

Community

WunderPhotos

Upload Photos

1,891,796 photos uploaded!

WunderBlog® & News

Nearby

Air Quality

  Air Quality AQ Index Pollutant
Not available.

Snow Depth

Station Depth Elevation

Earthquake Activity

City Distance Mag. Time & Date
Minimum magnitude displayed is 2.5.

Coastal Water Temperatures

Place Temperature

Stations

Nearby Weather Stations

Station Location Temp. Windchill Dew Point Humidity Wind Precip. Elev Updated Type
                   

Watches & Warnings

There are currently no watches in effect.